createdAt,value
2023-05-01T00:02:34.177Z,20.70
2023-05-01T00:05:26.363Z,19.20
2023-05-01T00:08:18.410Z,20.20
2023-05-01T00:11:12.447Z,18.80
2023-05-01T00:14:04.714Z,17.70
2023-05-01T00:16:56.825Z,19.40
2023-05-01T00:19:52.370Z,17.80
2023-05-01T00:22:44.451Z,18.60
2023-05-01T00:25:36.417Z,18.50
2023-05-01T00:28:28.359Z,19.00
2023-05-01T00:31:20.360Z,18.00
2023-05-01T00:34:12.610Z,17.50
2023-05-01T00:37:04.644Z,17.10
2023-05-01T00:39:56.916Z,16.90
2023-05-01T00:42:49.315Z,17.40
2023-05-01T00:45:44.284Z,17.80
2023-05-01T00:48:36.708Z,16.30
2023-05-01T00:51:30.206Z,16.80
2023-05-01T00:54:23.095Z,16.70
2023-05-01T00:57:05.277Z,15.80
2023-05-01T00:59:57.473Z,15.40
2023-05-01T01:02:50.054Z,16.70
2023-05-01T01:05:47.675Z,16.40
2023-05-01T01:08:45.222Z,15.60
2023-05-01T01:11:44.036Z,16.30
2023-05-01T01:14:43.017Z,15.20
2023-05-01T01:17:46.776Z,16.10
2023-05-01T01:20:46.383Z,16.50
2023-05-01T01:24:04.235Z,15.80
2023-05-01T01:27:31.820Z,15.60
2023-05-01T01:31:15.289Z,16.00
2023-05-01T01:34:14.399Z,16.80
2023-05-01T01:37:15.526Z,15.10
2023-05-01T01:40:12.642Z,15.30
2023-05-01T01:43:08.100Z,16.10
2023-05-01T01:46:04.262Z,15.40
2023-05-01T01:48:59.298Z,16.00
2023-05-01T01:51:53.016Z,17.50
2023-05-01T01:54:54.030Z,17.10
2023-05-01T01:57:48.155Z,16.30
2023-05-01T02:00:41.941Z,16.60
2023-05-01T02:03:34.637Z,16.80
2023-05-01T02:06:28.800Z,17.20
2023-05-01T02:09:23.065Z,17.30
2023-05-01T02:12:17.796Z,17.10
2023-05-01T02:15:12.776Z,16.50
2023-05-01T02:18:06.491Z,17.40
2023-05-01T02:21:00.803Z,17.70
2023-05-01T02:26:47.879Z,16.30
2023-05-01T02:29:39.820Z,18.40
2023-05-01T02:32:32.069Z,17.70
2023-05-01T02:35:24.162Z,16.30
2023-05-01T02:38:16.989Z,17.90
2023-05-01T02:41:09.894Z,18.00
2023-05-01T02:44:06.594Z,17.50
2023-05-01T02:46:59.843Z,17.60
2023-05-01T02:49:52.630Z,17.10
2023-05-01T02:52:45.836Z,18.30
2023-05-01T02:55:38.056Z,17.00
2023-05-01T02:58:33.854Z,16.50
2023-05-01T03:01:26.266Z,16.50
2023-05-01T03:04:18.397Z,17.10
2023-05-01T03:07:10.478Z,16.60
2023-05-01T03:09:44.951Z,17.70
2023-05-01T03:12:37.071Z,17.10
2023-05-01T03:15:29.054Z,16.10
2023-05-01T03:18:21.078Z,16.70
2023-05-01T03:21:13.673Z,15.50
2023-05-01T03:24:06.178Z,16.20
2023-05-01T03:26:58.197Z,17.20
2023-05-01T03:29:50.458Z,15.70
2023-05-01T03:32:42.533Z,15.90
2023-05-01T03:35:34.654Z,17.10
2023-05-01T03:38:27.197Z,16.70
2023-05-01T03:41:19.258Z,16.10
2023-05-01T03:44:11.255Z,15.60
2023-05-01T03:47:03.324Z,16.60
2023-05-01T03:49:55.835Z,16.70
2023-05-01T03:52:48.064Z,15.20
2023-05-01T03:55:40.662Z,14.90
2023-05-01T03:58:32.656Z,14.40
2023-05-01T04:01:24.679Z,14.20
2023-05-01T04:04:16.869Z,15.00
2023-05-01T04:07:09.351Z,13.90
2023-05-01T04:10:01.331Z,14.90
2023-05-01T04:12:53.520Z,15.00
2023-05-01T04:15:48.058Z,14.80
2023-05-01T04:18:40.024Z,15.50
2023-05-01T04:21:32.051Z,17.30
2023-05-01T04:24:24.075Z,17.10
2023-05-01T04:27:16.127Z,17.40
2023-05-01T04:30:09.647Z,17.40
2023-05-01T04:33:01.885Z,17.10
2023-05-01T04:35:54.009Z,17.60
2023-05-01T04:38:46.008Z,17.30
2023-05-01T04:41:38.113Z,17.80
2023-05-01T04:44:30.627Z,17.00
2023-05-01T04:47:22.556Z,17.70
2023-05-01T04:50:14.776Z,17.00
2023-05-01T04:53:06.811Z,15.40
2023-05-01T04:55:58.789Z,15.60
2023-05-01T04:58:50.896Z,15.20
2023-05-01T05:01:42.938Z,14.90
2023-05-01T05:04:34.985Z,15.10
2023-05-01T05:07:27.201Z,14.10
2023-05-01T05:10:19.282Z,14.00
2023-05-01T05:13:11.330Z,15.10
2023-05-01T05:16:03.467Z,14.40
2023-05-01T05:18:58.487Z,15.10
2023-05-01T05:21:50.475Z,14.80
2023-05-01T05:24:42.519Z,15.10
2023-05-01T05:27:37.940Z,14.60
2023-05-01T05:30:30.204Z,16.20
2023-05-01T05:33:22.767Z,14.80
2023-05-01T05:36:14.760Z,15.00
2023-05-01T05:39:06.792Z,16.40
2023-05-01T05:42:00.755Z,15.60
2023-05-01T05:44:53.036Z,14.80
2023-05-01T05:47:45.082Z,15.10
2023-05-01T05:50:37.233Z,14.60
2023-05-01T05:53:29.338Z,15.80
2023-05-01T05:56:21.327Z,14.10
2023-05-01T05:59:14.467Z,14.10
2023-05-01T06:02:08.590Z,12.10
2023-05-01T06:05:00.629Z,11.70
2023-05-01T06:07:52.638Z,11.90
2023-05-01T06:10:46.364Z,9.90
2023-05-01T06:16:29.931Z,7.40
2023-05-01T06:19:22.233Z,3.50
2023-05-01T06:22:14.234Z,3.30
2023-05-01T06:25:07.814Z,3.70
2023-05-01T06:28:00.019Z,4.60
2023-05-01T06:30:51.988Z,4.00
2023-05-01T06:33:43.923Z,4.10
2023-05-01T06:36:36.048Z,4.70
2023-05-01T06:39:28.029Z,3.60
2023-05-01T06:42:21.465Z,3.70
2023-05-01T06:45:13.688Z,3.30
2023-05-01T06:48:06.301Z,3.00
2023-05-01T06:50:58.553Z,4.00
2023-05-01T06:53:50.529Z,3.80
2023-05-01T06:56:43.144Z,3.20
2023-05-01T06:59:35.126Z,3.50
2023-05-01T07:02:27.188Z,3.70
2023-05-01T07:05:19.602Z,2.70
2023-05-01T07:08:11.672Z,4.10
2023-05-01T07:11:03.818Z,3.80
2023-05-01T07:13:56.186Z,4.00
2023-05-01T07:16:48.238Z,3.30
2023-05-01T07:19:40.270Z,3.10
2023-05-01T07:22:32.287Z,2.80
2023-05-01T07:25:24.996Z,2.20
2023-05-01T07:28:18.104Z,2.10
2023-05-01T07:31:12.110Z,2.10
2023-05-01T07:34:04.143Z,1.90
2023-05-01T07:36:56.395Z,1.40
2023-05-01T07:39:48.394Z,2.20
2023-05-01T07:42:40.458Z,1.30
2023-05-01T07:45:32.515Z,1.50
2023-05-01T07:48:24.777Z,1.90
2023-05-01T07:51:18.398Z,2.30
2023-05-01T07:54:08.646Z,2.80
2023-05-01T07:57:01.767Z,2.60
2023-05-01T07:59:57.680Z,2.30
2023-05-01T08:02:49.942Z,1.50
2023-05-01T08:05:43.408Z,1.90
2023-05-01T08:08:35.397Z,1.90
2023-05-01T08:11:29.395Z,1.90
2023-05-01T08:14:17.603Z,2.30
2023-05-01T08:17:09.730Z,2.50
2023-05-01T08:20:04.391Z,2.40
2023-05-01T08:22:56.418Z,2.20
2023-05-01T08:25:51.076Z,1.70
2023-05-01T08:28:43.267Z,1.90
2023-05-01T08:31:37.741Z,2.20
2023-05-01T08:34:29.852Z,2.00
2023-05-01T08:37:21.881Z,2.00
2023-05-01T08:40:15.835Z,2.00
2023-05-01T08:43:07.800Z,1.80
2023-05-01T08:46:01.771Z,2.10
2023-05-01T08:48:57.780Z,2.00
2023-05-01T08:51:52.957Z,1.70
2023-05-01T08:54:47.613Z,1.60
2023-05-01T08:57:40.476Z,1.80
2023-05-01T09:00:34.333Z,1.60
2023-05-01T09:03:28.187Z,1.60
2023-05-01T09:06:21.318Z,2.40
2023-05-01T09:09:13.322Z,1.80
2023-05-01T09:12:13.822Z,1.80
2023-05-01T09:15:07.183Z,1.70
2023-05-01T09:18:03.244Z,1.60
2023-05-01T09:20:56.253Z,1.70
2023-05-01T09:23:51.337Z,1.80
2023-05-01T09:26:43.662Z,1.90
2023-05-01T09:29:35.352Z,1.90
2023-05-01T09:32:28.934Z,1.60
2023-05-01T09:35:21.049Z,1.60
2023-05-01T09:38:17.866Z,1.50
2023-05-01T09:41:10.879Z,1.40
2023-05-01T09:44:03.136Z,1.40
2023-05-01T09:47:04.483Z,1.70
2023-05-01T09:49:59.646Z,2.30
2023-05-01T09:52:53.619Z,1.70
2023-05-01T09:56:02.967Z,1.50
2023-05-01T09:58:56.084Z,1.30
2023-05-01T10:01:50.088Z,1.50
2023-05-01T10:04:43.207Z,1.30
2023-05-01T10:07:35.791Z,1.50
2023-05-01T10:10:27.972Z,1.20
2023-05-01T10:13:20.297Z,1.60
2023-05-01T10:16:31.166Z,1.50
2023-05-01T10:19:23.437Z,1.80
2023-05-01T10:22:16.238Z,1.60
2023-05-01T10:25:11.401Z,1.30
2023-05-01T10:28:06.463Z,1.30
2023-05-01T10:30:49.793Z,1.80
2023-05-01T10:33:43.567Z,1.30
2023-05-01T10:36:42.020Z,1.70
2023-05-01T10:39:35.383Z,1.30
2023-05-01T10:42:28.888Z,1.30
2023-05-01T10:45:35.242Z,1.40
2023-05-01T10:48:58.224Z,1.70
2023-05-01T10:52:03.897Z,1.20
2023-05-01T10:55:16.653Z,1.10
2023-05-01T10:58:08.708Z,1.50
2023-05-01T11:01:33.565Z,1.80
2023-05-01T11:04:51.127Z,1.60
2023-05-01T11:07:43.585Z,1.50
2023-05-01T11:10:35.850Z,1.50
2023-05-01T11:14:02.693Z,1.40
2023-05-01T11:16:55.145Z,1.20
2023-05-01T11:19:50.275Z,1.40
2023-05-01T11:22:47.321Z,1.60
2023-05-01T11:25:39.375Z,1.70
2023-05-01T11:28:35.346Z,1.30
2023-05-01T11:31:29.113Z,1.60
2023-05-01T11:34:21.267Z,2.30
2023-05-01T11:37:13.279Z,1.60
2023-05-01T11:40:06.199Z,1.60
2023-05-01T11:43:06.908Z,1.20
2023-05-01T11:46:03.982Z,1.30
2023-05-01T11:48:57.234Z,1.20
2023-05-01T11:51:59.033Z,1.20
2023-05-01T11:54:51.349Z,1.30
2023-05-01T11:57:51.681Z,1.30
2023-05-01T12:00:44.882Z,1.00
2023-05-01T12:03:45.653Z,1.20
2023-05-01T12:06:44.565Z,1.10
2023-05-01T12:09:36.724Z,1.10
2023-05-01T12:12:28.778Z,0.80
2023-05-01T12:15:21.112Z,0.80
2023-05-01T12:18:15.364Z,0.70
2023-05-01T12:21:20.112Z,1.20
2023-05-01T12:24:14.998Z,1.10
2023-05-01T12:27:08.953Z,0.90
2023-05-01T12:30:00.937Z,0.90
2023-05-01T12:32:53.216Z,1.00
2023-05-01T12:35:35.123Z,1.20
2023-05-01T12:38:27.088Z,1.00
2023-05-01T12:41:01.901Z,1.10
2023-05-01T12:43:53.891Z,0.90
2023-05-01T12:46:47.351Z,0.80
2023-05-01T12:49:40.613Z,1.50
2023-05-01T12:52:33.375Z,1.20
2023-05-01T12:55:26.110Z,1.10
2023-05-01T12:58:18.796Z,1.40
2023-05-01T13:01:10.817Z,0.80
2023-05-01T13:04:03.076Z,1.30
2023-05-01T13:06:56.486Z,0.90
2023-05-01T13:09:58.548Z,1.70
2023-05-01T13:12:52.034Z,1.30
2023-05-01T13:15:44.919Z,1.50
2023-05-01T13:18:57.340Z,1.20
2023-05-01T13:21:52.221Z,1.30
2023-05-01T13:24:45.001Z,1.40
2023-05-01T13:27:37.878Z,1.40
2023-05-01T13:30:35.801Z,1.50
2023-05-01T13:33:29.217Z,1.80
2023-05-01T13:36:26.677Z,1.90
2023-05-01T13:39:21.993Z,1.50
2023-05-01T13:42:21.667Z,1.30
2023-05-01T13:45:19.689Z,1.60
2023-05-01T13:48:12.589Z,1.40
2023-05-01T13:51:07.195Z,1.80
2023-05-01T13:53:59.206Z,1.70
2023-05-01T13:56:51.191Z,1.70
2023-05-01T13:59:44.544Z,2.00
2023-05-01T14:02:38.324Z,2.00
2023-05-01T14:05:30.411Z,1.80
2023-05-01T14:08:28.551Z,2.20
2023-05-01T14:11:21.102Z,1.80
2023-05-01T14:14:13.345Z,1.60
2023-05-01T14:17:05.359Z,1.60
2023-05-01T14:19:57.417Z,2.10
2023-05-01T14:22:51.774Z,1.60
2023-05-01T14:25:45.047Z,1.70
2023-05-01T14:28:57.059Z,1.80
2023-05-01T14:31:49.072Z,1.60
2023-05-01T14:34:43.700Z,1.70
2023-05-01T14:37:35.822Z,1.90
2023-05-01T14:40:29.065Z,1.90
2023-05-01T14:43:22.636Z,1.70
2023-05-01T14:46:17.063Z,1.90
2023-05-01T14:49:09.157Z,2.00
2023-05-01T14:52:01.192Z,2.30
2023-05-01T14:54:53.484Z,1.60
2023-05-01T14:57:48.506Z,1.80
2023-05-01T15:00:40.497Z,2.30
2023-05-01T15:03:32.871Z,2.20
2023-05-01T15:06:25.692Z,1.80
2023-05-01T15:09:17.684Z,1.90
2023-05-01T15:12:10.198Z,1.80
2023-05-01T15:15:02.391Z,2.10
2023-05-01T15:17:54.388Z,1.90
2023-05-01T15:20:26.950Z,1.90
2023-05-01T15:23:19.003Z,2.00
2023-05-01T15:26:10.946Z,2.00
2023-05-01T15:29:03.458Z,1.90
2023-05-01T15:32:08.205Z,2.00
2023-05-01T15:35:03.642Z,2.20
2023-05-01T15:37:56.519Z,1.70
2023-05-01T15:40:49.863Z,2.30
2023-05-01T15:43:24.747Z,1.90
2023-05-01T15:46:18.245Z,1.80
2023-05-01T15:49:11.551Z,1.80
2023-05-01T15:52:03.810Z,2.10
2023-05-01T15:54:56.272Z,3.30
2023-05-01T15:57:30.886Z,2.00
2023-05-01T16:00:23.055Z,2.00
2023-05-01T16:03:16.153Z,2.10
2023-05-01T16:06:09.486Z,2.10
2023-05-01T16:09:01.999Z,2.20
2023-05-01T16:11:54.006Z,2.60
2023-05-01T16:14:46.423Z,2.00
2023-05-01T16:17:43.641Z,1.80
2023-05-01T16:20:42.308Z,2.20
2023-05-01T16:23:34.414Z,1.60
2023-05-01T16:26:28.756Z,1.90
2023-05-01T16:29:21.527Z,2.10
2023-05-01T16:32:14.063Z,2.40
2023-05-01T16:35:07.174Z,2.70
2023-05-01T16:38:00.428Z,2.50
2023-05-01T16:40:52.480Z,3.10
2023-05-01T16:43:44.487Z,1.70
2023-05-01T16:46:36.551Z,1.80
2023-05-01T16:49:29.398Z,2.20
2023-05-01T16:52:21.485Z,2.20
2023-05-01T16:55:13.834Z,2.40
2023-05-01T16:58:06.836Z,2.40
2023-05-01T17:00:59.505Z,2.50
2023-05-01T17:03:40.566Z,2.30
2023-05-01T17:06:32.681Z,2.50
2023-05-01T17:09:24.760Z,2.40
2023-05-01T17:12:17.587Z,1.90
2023-05-01T17:15:11.491Z,2.50
2023-05-01T17:18:03.697Z,2.70
2023-05-01T17:20:38.518Z,2.10
2023-05-01T17:23:30.852Z,2.30
2023-05-01T17:26:22.889Z,2.60
2023-05-01T17:29:15.207Z,3.10
2023-05-01T17:32:07.811Z,2.90
2023-05-01T17:35:00.155Z,3.00
2023-05-01T17:37:52.425Z,2.40
2023-05-01T17:40:44.643Z,3.10
2023-05-01T17:43:36.600Z,3.40
2023-05-01T17:46:28.720Z,2.40
2023-05-01T17:49:20.736Z,2.60
2023-05-01T17:52:12.753Z,2.60
2023-05-01T17:55:05.566Z,3.30
2023-05-01T17:57:57.492Z,2.50
2023-05-01T18:00:38.460Z,2.90
2023-05-01T18:03:32.444Z,3.10
2023-05-01T18:09:15.298Z,3.40
2023-05-01T18:12:07.761Z,3.90
2023-05-01T18:14:59.948Z,4.20
2023-05-01T18:17:52.011Z,3.90
2023-05-01T18:20:44.075Z,3.00
2023-05-01T18:23:36.955Z,3.40
2023-05-01T18:26:29.404Z,3.20
2023-05-01T18:29:22.766Z,4.00
2023-05-01T18:32:14.918Z,3.60
2023-05-01T18:35:08.400Z,4.00
2023-05-01T18:38:00.503Z,4.00
2023-05-01T18:40:32.387Z,3.70
2023-05-01T18:43:24.362Z,3.80
2023-05-01T18:46:16.452Z,4.50
2023-05-01T18:49:08.624Z,4.10
2023-05-01T18:52:00.566Z,4.40
2023-05-01T18:54:52.625Z,4.40
2023-05-01T18:57:46.545Z,3.70
2023-05-01T19:00:38.623Z,4.70
2023-05-01T19:03:30.651Z,5.00
2023-05-01T19:06:06.007Z,5.50
2023-05-01T19:08:58.328Z,5.20
2023-05-01T19:11:51.323Z,5.50
2023-05-01T19:14:43.312Z,4.80
2023-05-01T19:17:17.963Z,5.00
2023-05-01T19:20:11.769Z,5.20
2023-05-01T19:23:03.745Z,5.80
2023-05-01T19:25:55.731Z,5.50
2023-05-01T19:28:47.828Z,5.00
2023-05-01T19:31:39.833Z,4.90
2023-05-01T19:34:31.933Z,5.60
2023-05-01T19:37:23.958Z,4.70
2023-05-01T19:40:16.940Z,5.70
2023-05-01T19:43:08.911Z,5.30
2023-05-01T19:46:00.954Z,5.00
2023-05-01T19:48:53.183Z,4.70
2023-05-01T19:51:45.832Z,4.70
2023-05-01T19:54:38.027Z,4.80
2023-05-01T19:57:29.996Z,4.30
2023-05-01T20:00:22.507Z,5.00
2023-05-01T20:03:15.637Z,5.10
2023-05-01T20:06:07.889Z,5.20
2023-05-01T20:08:59.907Z,5.10
2023-05-01T20:11:52.267Z,4.80
2023-05-01T20:14:44.267Z,4.80
2023-05-01T20:17:36.333Z,4.40
2023-05-01T20:20:28.314Z,4.90
2023-05-01T20:23:23.282Z,4.50
2023-05-01T20:26:15.261Z,4.20
2023-05-01T20:29:44.699Z,5.10
2023-05-01T20:32:36.775Z,4.90
2023-05-01T20:35:28.791Z,4.70
2023-05-01T20:38:21.595Z,4.60
2023-05-01T20:41:13.547Z,4.70
2023-05-01T20:44:06.884Z,4.10
2023-05-01T20:46:58.921Z,5.00
2023-05-01T20:49:50.876Z,5.80
2023-05-01T20:52:42.894Z,5.80
2023-05-01T20:55:34.859Z,6.30
2023-05-01T20:58:26.906Z,6.60
2023-05-01T21:01:18.920Z,6.70
2023-05-01T21:04:11.151Z,8.20
2023-05-01T21:07:03.194Z,7.00
2023-05-01T21:09:55.139Z,8.00
2023-05-01T21:12:47.135Z,9.10
2023-05-01T21:15:43.200Z,8.70
2023-05-01T21:18:36.280Z,8.50
2023-05-01T21:21:28.974Z,8.10
2023-05-01T21:24:24.642Z,8.60
2023-05-01T21:27:16.622Z,9.70
2023-05-01T21:30:14.893Z,9.30
2023-05-01T21:33:09.258Z,9.80
2023-05-01T21:38:51.618Z,6.90
2023-05-01T21:41:44.458Z,6.70
2023-05-01T21:44:36.478Z,7.40
2023-05-01T21:47:19.831Z,6.90
2023-05-01T21:50:15.893Z,6.40
2023-05-01T21:53:08.408Z,6.50
2023-05-01T21:56:00.653Z,6.30
2023-05-01T21:58:52.736Z,7.10
2023-05-01T22:01:45.377Z,6.50
2023-05-01T22:04:38.057Z,6.40
2023-05-01T22:07:30.102Z,6.30
2023-05-01T22:10:22.095Z,6.80
2023-05-01T22:13:14.058Z,6.20
2023-05-01T22:16:06.509Z,7.00
2023-05-01T22:18:58.495Z,7.00
2023-05-01T22:21:50.748Z,6.80
2023-05-01T22:24:42.707Z,6.60
2023-05-01T22:27:34.854Z,6.70
2023-05-01T22:30:26.979Z,6.40
2023-05-01T22:33:18.968Z,6.60
2023-05-01T22:36:11.185Z,6.50
2023-05-01T22:39:03.848Z,7.20
2023-05-01T22:41:55.892Z,6.70
2023-05-01T22:44:48.206Z,7.30
2023-05-01T22:47:40.216Z,7.00
2023-05-01T22:50:32.174Z,7.60
2023-05-01T22:53:24.152Z,7.60
2023-05-01T22:56:16.277Z,7.80
2023-05-01T22:59:08.258Z,8.60
2023-05-01T23:02:02.408Z,7.50
2023-05-01T23:04:54.552Z,7.20
2023-05-01T23:07:46.683Z,8.50
2023-05-01T23:10:43.044Z,7.90
2023-05-01T23:13:34.994Z,8.70
2023-05-01T23:16:27.218Z,8.30
2023-05-01T23:19:25.196Z,8.60
2023-05-01T23:22:17.921Z,8.80
2023-05-01T23:25:15.959Z,9.20
2023-05-01T23:28:08.378Z,9.20
2023-05-01T23:31:02.503Z,10.00
2023-05-01T23:33:54.930Z,10.50
2023-05-01T23:36:48.452Z,10.50
2023-05-01T23:39:40.437Z,9.50
2023-05-01T23:42:32.689Z,9.50
2023-05-01T23:45:25.429Z,10.40
2023-05-01T23:48:17.573Z,9.00
2023-05-01T23:51:09.646Z,9.90
2023-05-01T23:54:04.196Z,9.80
2023-05-01T23:56:56.333Z,9.60
2023-05-01T23:59:48.344Z,9.90
